sensor_id;sensor_type;location;lat;lon;timestamp;noise_LAeq;noise_LA_min;noise_LA_max;noise_LA01;noise_LA95
64036;Laerm;50280;49.864;8.638;2023-02-15T00:00:43;32.80;29.89;41.26;;
64036;Laerm;50280;49.864;8.638;2023-02-15T00:03:15;33.36;29.85;41.13;;
64036;Laerm;50280;49.864;8.638;2023-02-15T00:05:47;32.38;30.21;42.72;;
64036;Laerm;50280;49.864;8.638;2023-02-15T00:08:19;34.05;30.37;44.09;;
64036;Laerm;50280;49.864;8.638;2023-02-15T00:10:51;33.53;29.99;42.30;;
64036;Laerm;50280;49.864;8.638;2023-02-15T00:13:25;34.75;30.74;39.28;;
64036;Laerm;50280;49.864;8.638;2023-02-15T00:16:00;33.90;29.94;38.87;;
64036;Laerm;50280;49.864;8.638;2023-02-15T00:18:34;32.71;30.06;37.86;;
64036;Laerm;50280;49.864;8.638;2023-02-15T00:21:07;32.47;29.54;39.16;;
64036;Laerm;50280;49.864;8.638;2023-02-15T00:23:41;32.05;29.72;37.12;;
64036;Laerm;50280;49.864;8.638;2023-02-15T00:26:13;32.85;30.00;39.58;;
64036;Laerm;50280;49.864;8.638;2023-02-15T00:28:46;32.69;29.87;37.83;;
64036;Laerm;50280;49.864;8.638;2023-02-15T00:31:19;34.03;30.46;46.91;;
64036;Laerm;50280;49.864;8.638;2023-02-15T00:33:51;33.90;30.43;44.06;;
64036;Laerm;50280;49.864;8.638;2023-02-15T00:36:23;33.41;30.19;39.71;;
64036;Laerm;50280;49.864;8.638;2023-02-15T00:38:55;34.19;30.82;38.70;;
64036;Laerm;50280;49.864;8.638;2023-02-15T00:41:27;32.69;29.36;39.98;;
64036;Laerm;50280;49.864;8.638;2023-02-15T00:44:01;32.95;30.02;40.13;;
64036;Laerm;50280;49.864;8.638;2023-02-15T00:46:34;32.77;29.89;40.23;;
64036;Laerm;50280;49.864;8.638;2023-02-15T00:49:06;31.93;29.71;35.63;;
64036;Laerm;50280;49.864;8.638;2023-02-15T00:51:38;32.75;29.88;44.91;;
64036;Laerm;50280;49.864;8.638;2023-02-15T00:54:10;33.30;29.79;45.43;;
64036;Laerm;50280;49.864;8.638;2023-02-15T00:56:42;32.23;29.30;36.50;;
64036;Laerm;50280;49.864;8.638;2023-02-15T00:59:16;32.34;29.43;43.70;;
64036;Laerm;50280;49.864;8.638;2023-02-15T01:01:48;34.75;30.82;45.71;;
64036;Laerm;50280;49.864;8.638;2023-02-15T01:04:20;33.77;29.97;45.24;;
64036;Laerm;50280;49.864;8.638;2023-02-15T01:06:52;32.44;29.92;41.58;;
64036;Laerm;50280;49.864;8.638;2023-02-15T01:09:24;31.53;29.58;34.80;;
64036;Laerm;50280;49.864;8.638;2023-02-15T01:11:56;32.17;29.20;36.58;;
64036;Laerm;50280;49.864;8.638;2023-02-15T01:14:29;32.46;29.29;38.02;;
64036;Laerm;50280;49.864;8.638;2023-02-15T01:17:01;31.80;29.27;36.15;;
64036;Laerm;50280;49.864;8.638;2023-02-15T01:19:33;31.35;29.38;37.29;;
64036;Laerm;50280;49.864;8.638;2023-02-15T01:22:05;31.37;29.34;34.64;;
64036;Laerm;50280;49.864;8.638;2023-02-15T01:24:37;32.71;29.28;38.83;;
64036;Laerm;50280;49.864;8.638;2023-02-15T01:27:10;33.37;30.03;38.11;;
64036;Laerm;50280;49.864;8.638;2023-02-15T01:29:43;32.02;29.00;47.76;;
64036;Laerm;50280;49.864;8.638;2023-02-15T01:32:15;30.99;28.70;35.21;;
64036;Laerm;50280;49.864;8.638;2023-02-15T01:34:47;32.11;29.24;41.53;;
64036;Laerm;50280;49.864;8.638;2023-02-15T01:37:19;32.01;29.47;35.80;;
64036;Laerm;50280;49.864;8.638;2023-02-15T01:39:51;31.81;29.69;36.71;;
64036;Laerm;50280;49.864;8.638;2023-02-15T01:42:24;32.24;29.75;40.21;;
64036;Laerm;50280;49.864;8.638;2023-02-15T01:44:59;31.40;29.03;35.45;;
64036;Laerm;50280;49.864;8.638;2023-02-15T01:47:36;33.67;29.11;52.90;;
64036;Laerm;50280;49.864;8.638;2023-02-15T01:50:14;33.72;30.12;44.60;;
64036;Laerm;50280;49.864;8.638;2023-02-15T01:52:51;32.35;29.49;39.23;;
64036;Laerm;50280;49.864;8.638;2023-02-15T01:55:32;33.43;29.08;48.50;;
64036;Laerm;50280;49.864;8.638;2023-02-15T01:58:08;31.10;28.91;38.95;;
64036;Laerm;50280;49.864;8.638;2023-02-15T02:00:43;31.94;28.93;50.40;;
64036;Laerm;50280;49.864;8.638;2023-02-15T02:03:16;33.25;29.18;42.77;;
64036;Laerm;50280;49.864;8.638;2023-02-15T02:05:52;35.34;31.27;44.77;;
64036;Laerm;50280;49.864;8.638;2023-02-15T02:08:24;33.73;30.65;40.70;;
64036;Laerm;50280;49.864;8.638;2023-02-15T02:10:57;32.78;29.44;40.73;;
64036;Laerm;50280;49.864;8.638;2023-02-15T02:13:29;31.47;29.29;36.62;;
64036;Laerm;50280;49.864;8.638;2023-02-15T02:16:09;32.41;29.48;42.07;;
64036;Laerm;50280;49.864;8.638;2023-02-15T02:18:57;34.14;30.71;39.84;;
64036;Laerm;50280;49.864;8.638;2023-02-15T02:22:01;34.41;30.74;42.55;;
64036;Laerm;50280;49.864;8.638;2023-02-15T02:28:34;34.67;30.72;42.28;;
64036;Laerm;50280;49.864;8.638;2023-02-15T02:31:40;34.19;30.48;38.88;;
64036;Laerm;50280;49.864;8.638;2023-02-15T02:34:26;34.21;30.37;39.09;;
64036;Laerm;50280;49.864;8.638;2023-02-15T02:37:08;34.39;30.47;46.70;;
64036;Laerm;50280;49.864;8.638;2023-02-15T02:39:56;35.12;30.62;43.25;;
64036;Laerm;50280;49.864;8.638;2023-02-15T02:42:39;33.91;31.09;40.58;;
64036;Laerm;50280;49.864;8.638;2023-02-15T02:45:16;34.32;31.31;38.82;;
64036;Laerm;50280;49.864;8.638;2023-02-15T02:47:59;35.46;31.86;39.45;;
64036;Laerm;50280;49.864;8.638;2023-02-15T02:50:39;35.68;32.08;43.80;;
64036;Laerm;50280;49.864;8.638;2023-02-15T02:53:12;34.75;31.17;40.35;;
64036;Laerm;50280;49.864;8.638;2023-02-15T02:55:46;33.17;30.82;37.10;;
64036;Laerm;50280;49.864;8.638;2023-02-15T02:58:25;34.24;30.12;46.55;;
64036;Laerm;50280;49.864;8.638;2023-02-15T03:01:06;36.70;31.88;48.90;;
64036;Laerm;50280;49.864;8.638;2023-02-15T03:03:46;34.77;31.30;44.94;;
64036;Laerm;50280;49.864;8.638;2023-02-15T03:06:25;34.83;31.64;43.24;;
64036;Laerm;50280;49.864;8.638;2023-02-15T03:09:09;34.96;32.14;42.40;;
64036;Laerm;50280;49.864;8.638;2023-02-15T03:11:45;35.95;32.20;48.41;;
64036;Laerm;50280;49.864;8.638;2023-02-15T03:14:19;36.09;32.24;43.97;;
64036;Laerm;50280;49.864;8.638;2023-02-15T03:16:51;34.62;31.72;44.41;;
64036;Laerm;50280;49.864;8.638;2023-02-15T03:19:27;36.00;31.32;47.52;;
64036;Laerm;50280;49.864;8.638;2023-02-15T03:22:10;34.41;31.02;40.68;;
64036;Laerm;50280;49.864;8.638;2023-02-15T03:25:00;36.43;32.65;50.06;;
64036;Laerm;50280;49.864;8.638;2023-02-15T03:27:39;34.12;30.92;39.80;;
64036;Laerm;50280;49.864;8.638;2023-02-15T03:30:18;34.97;31.50;39.57;;
64036;Laerm;50280;49.864;8.638;2023-02-15T03:32:54;36.77;31.26;45.31;;
64036;Laerm;50280;49.864;8.638;2023-02-15T03:35:36;35.97;32.42;49.59;;
64036;Laerm;50280;49.864;8.638;2023-02-15T03:38:20;38.21;32.84;55.61;;
64036;Laerm;50280;49.864;8.638;2023-02-15T03:41:01;36.05;32.09;46.86;;
64036;Laerm;50280;49.864;8.638;2023-02-15T03:43:42;37.25;31.76;52.89;;
64036;Laerm;50280;49.864;8.638;2023-02-15T03:46:23;35.74;32.21;45.79;;
64036;Laerm;50280;49.864;8.638;2023-02-15T03:49:05;36.78;31.79;50.96;;
64036;Laerm;50280;49.864;8.638;2023-02-15T03:51:44;36.47;32.73;46.01;;
64036;Laerm;50280;49.864;8.638;2023-02-15T03:54:25;36.95;33.29;44.60;;
64036;Laerm;50280;49.864;8.638;2023-02-15T03:56:59;36.54;32.81;44.99;;
64036;Laerm;50280;49.864;8.638;2023-02-15T03:59:32;37.04;33.76;44.08;;
64036;Laerm;50280;49.864;8.638;2023-02-15T04:02:12;37.20;33.43;44.51;;
64036;Laerm;50280;49.864;8.638;2023-02-15T04:04:51;36.09;32.41;46.45;;
64036;Laerm;50280;49.864;8.638;2023-02-15T04:07:23;38.31;31.97;47.22;;
64036;Laerm;50280;49.864;8.638;2023-02-15T04:09:57;35.40;32.04;46.33;;
64036;Laerm;50280;49.864;8.638;2023-02-15T04:12:30;37.11;33.25;44.96;;
64036;Laerm;50280;49.864;8.638;2023-02-15T04:15:02;37.23;33.62;50.46;;
64036;Laerm;50280;49.864;8.638;2023-02-15T04:17:36;37.27;32.96;48.92;;
64036;Laerm;50280;49.864;8.638;2023-02-15T04:20:08;37.96;34.06;46.49;;
64036;Laerm;50280;49.864;8.638;2023-02-15T04:22:41;37.59;33.61;45.56;;
64036;Laerm;50280;49.864;8.638;2023-02-15T04:25:14;36.91;32.91;45.69;;
64036;Laerm;50280;49.864;8.638;2023-02-15T04:27:48;39.34;33.86;51.12;;
64036;Laerm;50280;49.864;8.638;2023-02-15T04:30:23;38.37;34.61;49.99;;
64036;Laerm;50280;49.864;8.638;2023-02-15T04:32:57;42.61;34.59;69.49;;
64036;Laerm;50280;49.864;8.638;2023-02-15T04:35:29;41.54;34.97;57.73;;
64036;Laerm;50280;49.864;8.638;2023-02-15T04:38:01;38.68;34.45;47.05;;
64036;Laerm;50280;49.864;8.638;2023-02-15T04:40:35;39.14;34.84;46.20;;
64036;Laerm;50280;49.864;8.638;2023-02-15T04:43:07;42.48;36.41;57.02;;
64036;Laerm;50280;49.864;8.638;2023-02-15T04:45:39;40.00;35.17;47.96;;
64036;Laerm;50280;49.864;8.638;2023-02-15T04:48:11;39.22;35.54;46.51;;
64036;Laerm;50280;49.864;8.638;2023-02-15T04:50:43;40.55;36.05;46.21;;
64036;Laerm;50280;49.864;8.638;2023-02-15T04:53:16;39.47;34.99;45.74;;
64036;Laerm;50280;49.864;8.638;2023-02-15T04:55:49;39.97;35.38;52.11;;
64036;Laerm;50280;49.864;8.638;2023-02-15T04:58:21;38.60;34.92;49.28;;
64036;Laerm;50280;49.864;8.638;2023-02-15T05:00:55;39.14;35.16;46.68;;
64036;Laerm;50280;49.864;8.638;2023-02-15T05:03:27;39.57;35.46;47.82;;
64036;Laerm;50280;49.864;8.638;2023-02-15T05:05:59;40.42;35.84;53.20;;
64036;Laerm;50280;49.864;8.638;2023-02-15T05:08:31;42.52;34.79;61.44;;
64036;Laerm;50280;49.864;8.638;2023-02-15T05:11:04;39.70;35.27;51.13;;
64036;Laerm;50280;49.864;8.638;2023-02-15T05:13:37;43.07;35.86;58.89;;
64036;Laerm;50280;49.864;8.638;2023-02-15T05:16:09;41.24;35.07;60.54;;
64036;Laerm;50280;49.864;8.638;2023-02-15T05:18:41;38.88;34.67;47.32;;
64036;Laerm;50280;49.864;8.638;2023-02-15T05:21:13;39.69;34.82;49.27;;
64036;Laerm;50280;49.864;8.638;2023-02-15T05:23:45;40.66;36.87;49.24;;
64036;Laerm;50280;49.864;8.638;2023-02-15T05:26:21;41.23;34.61;60.48;;
64036;Laerm;50280;49.864;8.638;2023-02-15T05:28:54;39.84;35.67;52.18;;
64036;Laerm;50280;49.864;8.638;2023-02-15T05:31:26;41.22;35.42;54.32;;
64036;Laerm;50280;49.864;8.638;2023-02-15T05:33:59;41.01;35.76;54.86;;
64036;Laerm;50280;49.864;8.638;2023-02-15T05:36:31;41.80;36.43;55.15;;
64036;Laerm;50280;49.864;8.638;2023-02-15T05:39:03;41.92;36.32;57.23;;
64036;Laerm;50280;49.864;8.638;2023-02-15T05:44:08;42.91;37.96;55.07;;
64036;Laerm;50280;49.864;8.638;2023-02-15T05:46:40;42.62;37.99;63.54;;
64036;Laerm;50280;49.864;8.638;2023-02-15T05:49:12;41.95;37.28;48.96;;
64036;Laerm;50280;49.864;8.638;2023-02-15T05:51:44;42.46;37.67;49.48;;
64036;Laerm;50280;49.864;8.638;2023-02-15T05:54:16;42.41;37.46;55.97;;
64036;Laerm;50280;49.864;8.638;2023-02-15T05:56:50;43.12;37.65;52.61;;
64036;Laerm;50280;49.864;8.638;2023-02-15T05:59:22;41.23;37.04;53.72;;
64036;Laerm;50280;49.864;8.638;2023-02-15T06:01:54;48.22;37.91;59.90;;
64036;Laerm;50280;49.864;8.638;2023-02-15T06:04:26;42.70;37.68;58.17;;
64036;Laerm;50280;49.864;8.638;2023-02-15T06:06:58;42.52;36.99;52.55;;
64036;Laerm;50280;49.864;8.638;2023-02-15T06:09:30;41.05;37.40;53.52;;
64036;Laerm;50280;49.864;8.638;2023-02-15T06:12:04;40.79;36.67;47.90;;
64036;Laerm;50280;49.864;8.638;2023-02-15T06:14:36;42.28;36.67;60.57;;
64036;Laerm;50280;49.864;8.638;2023-02-15T06:17:09;44.17;36.77;56.89;;
64036;Laerm;50280;49.864;8.638;2023-02-15T06:19:41;49.35;37.61;71.43;;
64036;Laerm;50280;49.864;8.638;2023-02-15T06:22:13;43.21;38.22;64.00;;
64036;Laerm;50280;49.864;8.638;2023-02-15T06:24:45;48.13;38.20;73.49;;
64036;Laerm;50280;49.864;8.638;2023-02-15T06:27:19;46.77;38.12;60.56;;
64036;Laerm;50280;49.864;8.638;2023-02-15T06:29:51;48.28;39.06;62.65;;
64036;Laerm;50280;49.864;8.638;2023-02-15T06:32:23;48.24;38.88;63.07;;
64036;Laerm;50280;49.864;8.638;2023-02-15T06:34:55;46.70;38.31;62.22;;
64036;Laerm;50280;49.864;8.638;2023-02-15T06:37:27;52.08;37.99;65.62;;
64036;Laerm;50280;49.864;8.638;2023-02-15T06:39:59;49.49;38.00;75.06;;
64036;Laerm;50280;49.864;8.638;2023-02-15T06:42:33;50.35;38.06;63.50;;
64036;Laerm;50280;49.864;8.638;2023-02-15T06:45:05;50.52;38.85;64.29;;
64036;Laerm;50280;49.864;8.638;2023-02-15T06:47:38;49.39;38.48;64.05;;
64036;Laerm;50280;49.864;8.638;2023-02-15T06:50:11;48.04;37.87;63.88;;
64036;Laerm;50280;49.864;8.638;2023-02-15T06:52:43;50.50;38.08;69.45;;
64036;Laerm;50280;49.864;8.638;2023-02-15T06:55:15;48.76;38.62;64.18;;
64036;Laerm;50280;49.864;8.638;2023-02-15T06:57:48;49.93;39.77;64.88;;
64036;Laerm;50280;49.864;8.638;2023-02-15T07:00:21;50.30;39.90;71.94;;
64036;Laerm;50280;49.864;8.638;2023-02-15T07:02:54;50.18;40.77;60.73;;
64036;Laerm;50280;49.864;8.638;2023-02-15T07:05:26;51.56;41.16;62.70;;
64036;Laerm;50280;49.864;8.638;2023-02-15T07:07:59;49.37;41.07;68.71;;
64036;Laerm;50280;49.864;8.638;2023-02-15T07:10:32;51.82;41.70;63.13;;
64036;Laerm;50280;49.864;8.638;2023-02-15T07:13:05;49.37;40.60;62.86;;
64036;Laerm;50280;49.864;8.638;2023-02-15T07:15:37;54.68;40.30;67.62;;
64036;Laerm;50280;49.864;8.638;2023-02-15T07:18:10;55.36;41.10;72.91;;
64036;Laerm;50280;49.864;8.638;2023-02-15T07:20:42;54.40;40.43;72.74;;
64036;Laerm;50280;49.864;8.638;2023-02-15T07:23:14;50.26;40.64;61.76;;
64036;Laerm;50280;49.864;8.638;2023-02-15T07:25:46;51.24;39.42;64.01;;
64036;Laerm;50280;49.864;8.638;2023-02-15T07:28:19;52.71;42.96;64.02;;
64036;Laerm;50280;49.864;8.638;2023-02-15T07:30:51;54.47;39.48;64.88;;
64036;Laerm;50280;49.864;8.638;2023-02-15T07:33:23;54.33;41.44;63.77;;
64036;Laerm;50280;49.864;8.638;2023-02-15T07:35:58;51.41;40.03;63.91;;
64036;Laerm;50280;49.864;8.638;2023-02-15T07:38:32;48.80;38.45;61.96;;
64036;Laerm;50280;49.864;8.638;2023-02-15T07:41:07;47.65;38.55;66.72;;
64036;Laerm;50280;49.864;8.638;2023-02-15T07:43:44;46.14;37.75;59.33;;
64036;Laerm;50280;49.864;8.638;2023-02-15T07:46:17;51.71;39.15;63.77;;
64036;Laerm;50280;49.864;8.638;2023-02-15T07:48:49;53.21;47.59;59.85;;
64036;Laerm;50280;49.864;8.638;2023-02-15T07:51:22;53.79;46.51;64.35;;
64036;Laerm;50280;49.864;8.638;2023-02-15T07:53:54;50.69;42.76;64.98;;
64036;Laerm;50280;49.864;8.638;2023-02-15T07:56:26;49.86;43.93;59.95;;
64036;Laerm;50280;49.864;8.638;2023-02-15T07:58:59;46.52;38.78;61.85;;
64036;Laerm;50280;49.864;8.638;2023-02-15T08:01:33;50.83;39.88;63.04;;
64036;Laerm;50280;49.864;8.638;2023-02-15T08:04:07;52.51;43.86;65.26;;
64036;Laerm;50280;49.864;8.638;2023-02-15T08:06:39;49.02;41.19;67.80;;
64036;Laerm;50280;49.864;8.638;2023-02-15T08:09:11;50.83;40.20;64.65;;
64036;Laerm;50280;49.864;8.638;2023-02-15T08:11:43;52.29;47.41;65.96;;
64036;Laerm;50280;49.864;8.638;2023-02-15T08:14:18;52.55;47.43;68.32;;
64036;Laerm;50280;49.864;8.638;2023-02-15T08:16:53;53.18;47.71;67.42;;
64036;Laerm;50280;49.864;8.638;2023-02-15T08:19:27;52.13;39.70;61.78;;
64036;Laerm;50280;49.864;8.638;2023-02-15T08:22:02;45.70;40.25;59.22;;
64036;Laerm;50280;49.864;8.638;2023-02-15T08:24:36;45.29;39.49;66.70;;
64036;Laerm;50280;49.864;8.638;2023-02-15T08:27:10;52.24;40.80;66.13;;
64036;Laerm;50280;49.864;8.638;2023-02-15T08:29:44;48.72;41.00;59.32;;
64036;Laerm;50280;49.864;8.638;2023-02-15T08:32:16;50.71;40.74;63.90;;
64036;Laerm;50280;49.864;8.638;2023-02-15T08:34:48;53.45;47.31;63.02;;
64036;Laerm;50280;49.864;8.638;2023-02-15T08:37:20;54.39;48.95;61.80;;
64036;Laerm;50280;49.864;8.638;2023-02-15T08:39:52;53.23;41.18;62.47;;
64036;Laerm;50280;49.864;8.638;2023-02-15T08:42:25;50.38;41.47;62.84;;
64036;Laerm;50280;49.864;8.638;2023-02-15T08:44:58;49.37;41.58;65.48;;
64036;Laerm;50280;49.864;8.638;2023-02-15T08:47:30;50.54;41.29;61.98;;
64036;Laerm;50280;49.864;8.638;2023-02-15T08:50:03;53.39;41.37;62.17;;
64036;Laerm;50280;49.864;8.638;2023-02-15T08:52:35;54.67;46.75;68.68;;
64036;Laerm;50280;49.864;8.638;2023-02-15T08:55:07;52.84;46.27;59.95;;
64036;Laerm;50280;49.864;8.638;2023-02-15T08:57:39;52.27;40.85;61.90;;
64036;Laerm;50280;49.864;8.638;2023-02-15T09:00:14;50.06;40.98;67.44;;
64036;Laerm;50280;49.864;8.638;2023-02-15T09:02:46;47.68;39.46;69.02;;
64036;Laerm;50280;49.864;8.638;2023-02-15T09:05:18;50.45;39.84;76.10;;
64036;Laerm;50280;49.864;8.638;2023-02-15T09:07:50;47.23;39.63;62.92;;
64036;Laerm;50280;49.864;8.638;2023-02-15T09:10:22;52.74;41.27;61.22;;
64036;Laerm;50280;49.864;8.638;2023-02-15T09:12:55;56.19;42.41;82.45;;
64036;Laerm;50280;49.864;8.638;2023-02-15T09:15:28;58.65;42.44;80.86;;
64036;Laerm;50280;49.864;8.638;2023-02-15T09:18:00;57.91;41.67;81.28;;
64036;Laerm;50280;49.864;8.638;2023-02-15T09:20:35;52.81;40.97;75.18;;
64036;Laerm;50280;49.864;8.638;2023-02-15T09:23:07;55.43;40.08;85.30;;
64036;Laerm;50280;49.864;8.638;2023-02-15T09:25:39;51.31;40.10;77.83;;
64036;Laerm;50280;49.864;8.638;2023-02-15T09:28:11;49.80;39.66;76.25;;
64036;Laerm;50280;49.864;8.638;2023-02-15T09:30:45;49.78;39.81;80.57;;
64036;Laerm;50280;49.864;8.638;2023-02-15T09:33:17;50.76;40.31;80.13;;
64036;Laerm;50280;49.864;8.638;2023-02-15T09:35:49;56.46;40.84;85.56;;
64036;Laerm;50280;49.864;8.638;2023-02-15T09:38:21;55.29;40.49;81.06;;
64036;Laerm;50280;49.864;8.638;2023-02-15T09:41:01;50.91;39.81;74.78;;
64036;Laerm;50280;49.864;8.638;2023-02-15T09:43:50;52.42;40.67;74.26;;
64036;Laerm;50280;49.864;8.638;2023-02-15T09:46:46;52.58;40.91;73.31;;
64036;Laerm;50280;49.864;8.638;2023-02-15T09:49:40;51.84;41.55;74.16;;
64036;Laerm;50280;49.864;8.638;2023-02-15T09:52:30;48.39;39.97;64.87;;
64036;Laerm;50280;49.864;8.638;2023-02-15T09:55:22;46.76;39.79;71.14;;
64036;Laerm;50280;49.864;8.638;2023-02-15T09:58:13;56.15;40.18;82.89;;
64036;Laerm;50280;49.864;8.638;2023-02-15T10:01:01;48.20;38.52;68.33;;
64036;Laerm;50280;49.864;8.638;2023-02-15T10:03:53;54.63;40.50;78.54;;
64036;Laerm;50280;49.864;8.638;2023-02-15T10:06:57;52.27;41.61;77.18;;
64036;Laerm;50280;49.864;8.638;2023-02-15T10:09:48;51.15;41.94;62.16;;
64036;Laerm;50280;49.864;8.638;2023-02-15T10:12:46;48.87;41.82;64.45;;
64036;Laerm;50280;49.864;8.638;2023-02-15T10:15:53;59.97;43.23;81.14;;
64036;Laerm;50280;49.864;8.638;2023-02-15T10:18:48;54.20;41.85;79.66;;
64036;Laerm;50280;49.864;8.638;2023-02-15T10:21:39;54.43;42.81;68.56;;
64036;Laerm;50280;49.864;8.638;2023-02-15T10:24:46;53.40;43.63;66.49;;
64036;Laerm;50280;49.864;8.638;2023-02-15T10:27:32;55.05;42.45;81.18;;
64036;Laerm;50280;49.864;8.638;2023-02-15T10:30:13;51.29;42.02;67.20;;
64036;Laerm;50280;49.864;8.638;2023-02-15T10:32:55;49.78;42.48;64.66;;
64036;Laerm;50280;49.864;8.638;2023-02-15T10:35:41;49.47;42.92;61.78;;
64036;Laerm;50280;49.864;8.638;2023-02-15T10:38:26;50.67;42.20;67.66;;
64036;Laerm;50280;49.864;8.638;2023-02-15T10:41:25;54.82;44.26;68.99;;
64036;Laerm;50280;49.864;8.638;2023-02-15T10:44:12;48.13;41.87;60.71;;
64036;Laerm;50280;49.864;8.638;2023-02-15T10:47:10;48.02;42.11;69.63;;
64036;Laerm;50280;49.864;8.638;2023-02-15T10:50:13;46.77;41.35;58.62;;
64036;Laerm;50280;49.864;8.638;2023-02-15T10:53:13;46.46;40.85;60.99;;
64036;Laerm;50280;49.864;8.638;2023-02-15T10:56:01;51.29;40.57;75.07;;
64036;Laerm;50280;49.864;8.638;2023-02-15T10:58:54;56.03;41.69;82.41;;
64036;Laerm;50280;49.864;8.638;2023-02-15T11:01:41;50.93;41.87;66.43;;
64036;Laerm;50280;49.864;8.638;2023-02-15T11:04:38;48.73;42.50;63.33;;
64036;Laerm;50280;49.864;8.638;2023-02-15T11:07:17;55.00;42.10;85.97;;
64036;Laerm;50280;49.864;8.638;2023-02-15T11:10:01;46.61;41.71;59.95;;
64036;Laerm;50280;49.864;8.638;2023-02-15T11:12:46;45.60;40.89;57.72;;
64036;Laerm;50280;49.864;8.638;2023-02-15T11:15:26;46.09;40.89;58.46;;
64036;Laerm;50280;49.864;8.638;2023-02-15T11:18:10;47.21;41.82;65.75;;
64036;Laerm;50280;49.864;8.638;2023-02-15T11:20:52;47.86;41.23;68.11;;
64036;Laerm;50280;49.864;8.638;2023-02-15T11:23:28;47.93;40.96;67.82;;
64036;Laerm;50280;49.864;8.638;2023-02-15T11:26:08;47.08;40.81;64.68;;
64036;Laerm;50280;49.864;8.638;2023-02-15T11:28:50;45.17;40.11;59.92;;
64036;Laerm;50280;49.864;8.638;2023-02-15T11:31:26;47.66;39.51;67.48;;
64036;Laerm;50280;49.864;8.638;2023-02-15T11:34:13;46.10;38.68;61.88;;
64036;Laerm;50280;49.864;8.638;2023-02-15T11:36:55;43.59;39.33;55.29;;
64036;Laerm;50280;49.864;8.638;2023-02-15T11:39:33;43.73;39.14;63.21;;
64036;Laerm;50280;49.864;8.638;2023-02-15T11:42:13;45.63;39.65;57.84;;
64036;Laerm;50280;49.864;8.638;2023-02-15T11:44:56;46.03;40.06;64.02;;
64036;Laerm;50280;49.864;8.638;2023-02-15T11:47:33;48.05;39.53;69.25;;
64036;Laerm;50280;49.864;8.638;2023-02-15T11:50:11;48.84;40.01;68.18;;
64036;Laerm;50280;49.864;8.638;2023-02-15T11:52:46;52.78;40.79;65.62;;
64036;Laerm;50280;49.864;8.638;2023-02-15T11:55:21;50.06;39.70;66.57;;
64036;Laerm;50280;49.864;8.638;2023-02-15T11:58:00;47.51;40.07;62.19;;
64036;Laerm;50280;49.864;8.638;2023-02-15T12:00:42;47.84;40.51;69.64;;
64036;Laerm;50280;49.864;8.638;2023-02-15T12:03:21;46.78;41.13;64.31;;
64036;Laerm;50280;49.864;8.638;2023-02-15T12:05:58;49.96;40.45;67.69;;
64036;Laerm;50280;49.864;8.638;2023-02-15T12:08:37;54.05;41.89;68.82;;
64036;Laerm;50280;49.864;8.638;2023-02-15T12:11:17;53.24;39.67;64.95;;
64036;Laerm;50280;49.864;8.638;2023-02-15T12:13:57;54.35;38.97;63.93;;
64036;Laerm;50280;49.864;8.638;2023-02-15T12:16:33;54.03;41.53;64.35;;
64036;Laerm;50280;49.864;8.638;2023-02-15T12:19:24;54.52;39.77;62.31;;
64036;Laerm;50280;49.864;8.638;2023-02-15T12:22:03;51.86;39.90;61.75;;
64036;Laerm;50280;49.864;8.638;2023-02-15T12:24:38;46.81;39.19;66.64;;
64036;Laerm;50280;49.864;8.638;2023-02-15T12:27:18;50.00;39.37;62.48;;
64036;Laerm;50280;49.864;8.638;2023-02-15T12:29:57;51.25;38.00;69.09;;
64036;Laerm;50280;49.864;8.638;2023-02-15T12:32:34;45.86;37.04;59.73;;
64036;Laerm;50280;49.864;8.638;2023-02-15T12:35:13;47.39;37.73;66.08;;
64036;Laerm;50280;49.864;8.638;2023-02-15T12:37:55;47.38;36.68;72.87;;
64036;Laerm;50280;49.864;8.638;2023-02-15T12:40:28;48.87;37.70;60.85;;
64036;Laerm;50280;49.864;8.638;2023-02-15T12:43:02;50.71;41.75;62.70;;
64036;Laerm;50280;49.864;8.638;2023-02-15T12:45:37;49.41;41.78;66.28;;
64036;Laerm;50280;49.864;8.638;2023-02-15T12:48:15;47.16;39.86;62.40;;
64036;Laerm;50280;49.864;8.638;2023-02-15T12:50:49;45.39;38.20;66.76;;
64036;Laerm;50280;49.864;8.638;2023-02-15T12:53:31;44.29;37.53;57.07;;
64036;Laerm;50280;49.864;8.638;2023-02-15T12:56:07;47.24;37.08;69.51;;
64036;Laerm;50280;49.864;8.638;2023-02-15T12:58:41;46.34;37.63;64.41;;
64036;Laerm;50280;49.864;8.638;2023-02-15T13:01:17;45.16;38.37;59.12;;
64036;Laerm;50280;49.864;8.638;2023-02-15T13:03:58;46.33;38.70;58.22;;
64036;Laerm;50280;49.864;8.638;2023-02-15T13:06:35;49.03;38.42;63.72;;
64036;Laerm;50280;49.864;8.638;2023-02-15T13:09:14;51.32;39.62;64.16;;
64036;Laerm;50280;49.864;8.638;2023-02-15T13:11:49;48.65;38.52;60.93;;
64036;Laerm;50280;49.864;8.638;2023-02-15T13:14:27;48.27;38.42;64.33;;
64036;Laerm;50280;49.864;8.638;2023-02-15T13:17:04;48.56;38.95;69.62;;
64036;Laerm;50280;49.864;8.638;2023-02-15T13:19:40;45.34;38.50;59.75;;
64036;Laerm;50280;49.864;8.638;2023-02-15T13:22:16;50.84;37.36;65.44;;
64036;Laerm;50280;49.864;8.638;2023-02-15T13:24:54;46.41;37.69;60.88;;
64036;Laerm;50280;49.864;8.638;2023-02-15T13:27:35;47.33;38.87;60.43;;
64036;Laerm;50280;49.864;8.638;2023-02-15T13:30:28;45.55;39.16;57.57;;
64036;Laerm;50280;49.864;8.638;2023-02-15T13:33:08;52.07;40.62;69.01;;
64036;Laerm;50280;49.864;8.638;2023-02-15T13:35:55;55.95;39.44;70.15;;
64036;Laerm;50280;49.864;8.638;2023-02-15T13:38:46;51.80;39.16;67.13;;
64036;Laerm;50280;49.864;8.638;2023-02-15T13:41:28;47.14;40.03;59.48;;
64036;Laerm;50280;49.864;8.638;2023-02-15T13:44:12;51.01;40.55;61.77;;
64036;Laerm;50280;49.864;8.638;2023-02-15T13:47:02;49.76;40.10;60.12;;
64036;Laerm;50280;49.864;8.638;2023-02-15T13:50:00;46.74;40.45;57.71;;
64036;Laerm;50280;49.864;8.638;2023-02-15T13:52:46;49.06;39.67;62.43;;
64036;Laerm;50280;49.864;8.638;2023-02-15T13:55:35;47.94;39.38;70.03;;
64036;Laerm;50280;49.864;8.638;2023-02-15T13:58:30;45.20;39.37;61.94;;
64036;Laerm;50280;49.864;8.638;2023-02-15T14:01:20;47.18;38.85;60.66;;
64036;Laerm;50280;49.864;8.638;2023-02-15T14:07:35;52.40;39.19;65.25;;
64036;Laerm;50280;49.864;8.638;2023-02-15T14:10:25;47.31;38.32;59.85;;
64036;Laerm;50280;49.864;8.638;2023-02-15T14:13:32;46.16;38.01;69.53;;
64036;Laerm;50280;49.864;8.638;2023-02-15T14:16:21;46.30;37.84;66.98;;
64036;Laerm;50280;49.864;8.638;2023-02-15T14:19:09;44.52;39.01;58.42;;
64036;Laerm;50280;49.864;8.638;2023-02-15T14:21:57;44.57;37.79;59.28;;
64036;Laerm;50280;49.864;8.638;2023-02-15T14:24:36;49.49;38.01;63.59;;
64036;Laerm;50280;49.864;8.638;2023-02-15T14:27:20;48.00;38.86;60.24;;
64036;Laerm;50280;49.864;8.638;2023-02-15T14:30:00;49.62;39.56;62.64;;
64036;Laerm;50280;49.864;8.638;2023-02-15T14:32:46;50.48;40.25;64.27;;
64036;Laerm;50280;49.864;8.638;2023-02-15T14:35:24;46.33;39.71;60.55;;
64036;Laerm;50280;49.864;8.638;2023-02-15T14:38:06;50.04;40.46;65.79;;
64036;Laerm;50280;49.864;8.638;2023-02-15T14:40:52;44.77;39.13;61.46;;
64036;Laerm;50280;49.864;8.638;2023-02-15T14:43:48;42.92;39.08;55.44;;
64036;Laerm;50280;49.864;8.638;2023-02-15T14:46:29;43.68;39.06;56.03;;
64036;Laerm;50280;49.864;8.638;2023-02-15T14:49:10;55.74;38.95;72.74;;
64036;Laerm;50280;49.864;8.638;2023-02-15T14:51:56;59.23;39.95;73.78;;